Latest Coastal Weather Observations for Gunn Point

IDD60701

Issued at 9:21 am CST Wednesday 1 June 2016 (issued every 10 minutes, with the page automatically refreshed every 10 minutes)

About coastal observations | Map of coastal stations | Coastal observations for NT | Marine services | Other Formats
Station Details ID: 014023 Name: GUNN POINT Lat: -12.25 Lon: 131.04 Height: 25.0 m
Data from the previous 72 hours. | See also: Recent months for locations in Northern Territory
Date/Time
CST
Temp

°C
Wind Pressure Rain
since 9am
mm
Weather Cloud Vis
km
Sea
Height
m
Swell
Dir
 
Speed
knots
Gust
knots
hPa Trend Height
m
Period
s
Dir
01/09:00am 27.0 ESE 2 4 1014.6 - - - - - - - - -
01/08:30am 25.2 ESE 1 3 1014.6 - - - - - - - - -
01/08:00am 23.1 SE 2 3 1014.4 - - - - - - - - -
01/07:30am 22.2 ESE 2 3 1014.1 - - - - - - - - -
01/07:00am 22.3 CALM 0 0 1013.7 - - - - - - - - -
01/06:30am 22.2 CALM 0 0 1013.4 - - - - - - - - -
01/06:00am 21.9 CALM 0 0 1013.1 - - - - - - - - -
01/05:30am 21.6 CALM 0 0 1013.2 - - - - - - - - -
01/05:00am 21.6 SE 2 3 1013.0 - - - - - - - - -
01/04:30am 21.4 CALM 0 0 1012.7 - - - - - - - - -
01/04:00am 21.6 CALM 0 0 1012.5 - - - - - - - - -
01/03:30am 21.7 CALM 0 0 1012.7 - - - - - - - - -
01/03:00am 22.1 CALM 0 0 1012.7 - 0.0 - - - - - - -
01/02:30am 22.1 CALM 0 1 1012.9 - - - - - - - - -
01/02:00am 22.1 CALM 0 0 1013.1 - - - - - - - - -
01/01:30am 22.3 CALM 0 0 1013.3 - - - - - - - - -
01/01:00am 22.6 CALM 0 0 1013.5 - - - - - - - - -
01/12:30am 22.8 S 2 4 1013.4 - - - - - - - - -
01/12:00am 21.9 S 2 3 1013.1 - - - - - - - - -
 
Date/Time
CST
Temp

°C
Wind Pressure Rain
since 9am
mm
Weather Cloud Vis
km
Sea
Height
m
Swell
Dir
 
Speed
knots
Gust
knots
hPa Trend Height
m
Period
s
Dir
31/11:30pm 21.6 SE 2 3 1013.1 - - - - - - - - -
31/11:00pm 21.7 CALM 0 0 1013.1 - - - - - - - - -
31/10:30pm 22.2 NE 2 2 1013.2 - - - - - - - - -
31/10:00pm 22.2 NE 1 2 1013.2 - - - - - - - - -
31/09:30pm 22.4 ENE 2 3 1012.9 - - - - - - - - -
31/09:00pm 22.5 NE 2 3 1012.8 - - - - - - - - -
31/08:30pm 22.6 ENE 1 2 1012.5 - - - - - - - - -
31/08:00pm 22.9 - - - 1012.1 - - - - - - - - -
31/07:00pm 25.2 CALM 0 1 1011.4 - 0.0 - - - - - - -
31/06:30pm 26.4 NE 2 3 1011.2 - 0.0 - - - - - - -
31/06:00pm 28.0 NE 2 5 1011.2 - 0.0 - - - - - - -
31/05:30pm 29.1 NE 4 9 1011.0 - 0.0 - - - - - - -
31/05:00pm 29.9 NE 5 7 1010.8 - 0.0 - - - - - - -
31/04:30pm 30.3 NNE 5 10 1010.7 - 0.0 - - - - - - -
31/04:00pm 30.9 NNE 5 8 1010.7 - 0.0 - - - - - - -
31/03:30pm 31.6 NE 5 8 1010.9 - 0.0 - - - - - - -
31/03:00pm 31.8 NNE 4 8 1010.9 - 0.0 - - - - - - -
31/02:30pm 31.6 NNE 6 10 1011.1 - 0.0 - - - - - - -
31/02:00pm 32.1 NE 5 11 1011.4 - 0.0 - - - - - - -
31/01:30pm 32.0 NE 3 7 1011.9 - 0.0 - - - - - - -
31/01:00pm 31.9 SE 4 7 1012.4 - 0.0 - - - - - - -
31/12:30pm 32.2 ENE 5 11 1012.9 - 0.0 - - - - - - -
31/12:00pm 31.3 ENE 6 11 1013.2 - 0.0 - - - - - - -
31/11:30am 30.8 ESE 5 11 1013.8 - 0.0 - - - - - - -
31/11:00am 30.5 E 7 11 1014.2 - 0.0 - - - - - - -
31/10:30am 29.8 E 6 13 1014.5 - 0.0 - - - - - - -
31/10:00am 29.2 E 6 12 1014.6 - 0.0 - - - - - - -
31/09:30am 28.3 ESE 6 11 1014.6 - 0.0 - - - - - - -
31/09:00am 27.5 E 4 8 1014.5 - - - - - - - - -
31/08:30am 26.1 ESE 2 5 1014.1 - - - - - - - - -
31/08:00am 24.7 SE 3 4 1013.9 - - - - - - - - -
31/07:30am 23.8 SE 2 4 1013.4 - - - - - - - - -
31/07:00am 23.5 ESE 3 5 1013.2 - - - - - - - - -
31/06:30am 23.4 E 2 3 1013.0 - - - - - - - - -
31/06:00am 23.6 ESE 3 4 1012.9 - - - - - - - - -
31/05:30am 23.7 ESE 3 5 1012.8 - - - - - - - - -
31/05:00am 23.6 SE 3 5 1012.6 - - - - - - - - -
31/04:30am 23.7 SE 3 4 1012.6 - - - - - - - - -
31/04:00am 23.8 SSE 3 5 1012.6 - - - - - - - - -
31/03:30am 23.7 ESE 3 5 1012.5 - - - - - - - - -
31/03:00am 23.1 ENE 2 4 1012.4 - - - - - - - - -
31/02:30am 23.8 NE 2 3 1012.4 - - - - - - - - -
31/02:00am 24.3 NE 3 4 1012.6 - - - - - - - - -
31/01:30am 23.6 NE 2 4 1012.8 - - - - - - - - -
31/01:00am 23.1 ENE 2 2 1012.7 - - - - - - - - -
31/12:30am 23.0 CALM 0 0 1012.8 - - - - - - - - -
31/12:00am 22.7 CALM 0 0 1012.9 - - - - - - - - -
 
Date/Time
CST
Temp

°C
Wind Pressure Rain
since 9am
mm
Weather Cloud Vis
km
Sea
Height
m
Swell
Dir
 
Speed
knots
Gust
knots
hPa Trend Height
m
Period
s
Dir
30/11:30pm 23.2 CALM 0 0 1013.1 - - - - - - - - -
30/11:00pm 22.9 CALM 0 0 1013.3 - - - - - - - - -
30/10:30pm 23.3 CALM 0 1 1013.2 - - - - - - - - -
30/10:00pm 23.2 CALM 0 0 1013.0 - - - - - - - - -
30/09:30pm 23.1 CALM 0 0 1013.0 - - - - - - - - -
30/09:00pm 23.4 CALM 0 0 1012.8 - - - - - - - - -
30/08:30pm 23.6 CALM 0 0 1012.7 - - - - - - - - -
30/08:00pm 24.1 CALM 0 0 1012.4 - - - - - - - - -
30/07:30pm 24.6 NE 1 2 1012.1 - - - - - - - - -
30/07:00pm 25.6 NE 2 3 1011.8 - - - - - - - - -
30/06:30pm 27.0 NNE 2 3 1011.5 - - - - - - - - -
30/06:00pm 28.5 NE 2 6 1011.1 - - - - - - - - -
30/05:30pm 29.9 NE 4 7 1010.7 - - - - - - - - -
30/05:00pm 30.7 NNE 4 8 1010.3 - - - - - - - - -
30/04:30pm 30.8 NNE 5 10 1010.2 - - - - - - - - -
30/04:00pm 31.5 NE 4 9 1010.0 - - - - - - - - -
30/03:30pm 31.5 NE 5 10 1010.1 - - - - - - - - -
30/03:00pm 32.1 NE 4 7 1010.2 - - - - - - - - -
30/02:30pm 31.9 ENE 5 10 1010.4 - 0.0 - - - - - - -
30/02:00pm 32.0 ENE 6 10 1010.7 - 0.0 - - - - - - -
30/01:30pm 31.8 ENE 7 13 1011.2 - 0.0 - - - - - - -
30/01:00pm 32.0 ENE 6 12 1012.0 - 0.0 - - - - - - -
30/12:30pm 31.7 ENE 7 13 1012.2 - 0.0 - - - - - - -
30/12:00pm 31.9 E 5 12 1012.7 - 0.0 - - - - - - -
30/11:30am 31.2 ENE 7 11 1013.2 - 0.0 - - - - - - -
30/11:00am 30.3 ENE 7 10 1013.6 - 0.0 - - - - - - -
30/10:30am 29.5 E 6 11 1013.8 - 0.0 - - - - - - -
30/10:00am 29.5 ENE 5 9 1014.0 - 0.0 - - - - - - -
30/09:30am 28.4 E 5 11 1014.0 - 0.0 - - - - - - -
30/09:00am 27.2 ESE 5 8 1013.9 - - - - - - - - -
30/08:30am 25.8 SE 3 5 1013.7 - - - - - - - - -
30/08:00am 24.3 SE 3 4 1013.5 - - - - - - - - -
30/07:30am 23.4 SE 2 4 1013.1 - - - - - - - - -
30/07:00am 22.6 ESE 2 2 1012.6 - - - - - - - - -
30/06:30am 23.2 ESE 2 3 1012.4 - - - - - - - - -
30/06:00am 23.2 SE 2 4 1012.1 - - - - - - - - -
30/05:30am 23.6 SE 3 5 1011.9 - - - - - - - - -
30/05:00am 22.9 SE 2 4 1011.9 - - - - - - - - -
30/04:30am 22.1 CALM 0 2 1011.6 - - - - - - - - -
30/04:00am 22.2 CALM 0 0 1011.6 - - - - - - - - -
30/03:30am 22.4 CALM 0 0 1011.6 - - - - - - - - -
30/03:00am 22.7 CALM 0 0 1011.7 - - - - - - - - -
30/02:30am 22.7 CALM 0 0 1011.9 - - - - - - - - -
30/02:00am 23.0 CALM 0 0 1012.2 - 0.2 - - - - - - -
30/01:30am 22.7 CALM 0 0 1012.3 - 0.2 - - - - - - -
30/01:00am 22.5 CALM 0 0 1012.7 - 0.2 - - - - - - -
30/12:30am 22.7 CALM 0 0 1013.0 - 0.2 - - - - - - -
30/12:00am 22.9 CALM 0 0 1013.1 - 0.2 - - - - - - -
 
Date/Time
CST
Temp

°C
Wind Pressure Rain
since 9am
mm
Weather Cloud Vis
km
Sea
Height
m
Swell
Dir
 
Speed
knots
Gust
knots
hPa Trend Height
m
Period
s
Dir
29/11:30pm 23.0 NNE 1 2 1013.0 - 0.2 - - - - - - -
29/11:00pm 23.3 CALM 0 0 1013.3 - 0.2 - - - - - - -
29/10:30pm 23.3 CALM 0 0 1013.3 - 0.2 - - - - - - -
29/10:00pm 22.9 CALM 0 0 1013.2 - 0.2 - - - - - - -
29/09:30pm 23.1 CALM 0 0 1013.1 - 0.2 - - - - - - -
29/09:00pm 23.3 CALM 0 0 1012.9 - 0.2 - - - - - - -
29/08:30pm 23.5 CALM 0 0 1012.7 - 0.2 - - - - - - -
29/08:00pm 23.6 CALM 0 0 1012.4 - 0.2 - - - - - - -
29/07:30pm 24.1 CALM 0 0 1012.0 - 0.2 - - - - - - -
29/07:00pm 24.7 CALM 0 0 1011.7 - 0.2 - - - - - - -
29/06:30pm 25.7 CALM 0 0 1011.7 - 0.2 - - - - - - -
29/06:00pm 27.8 CALM 0 0 1011.3 - 0.2 - - - - - - -
29/05:30pm 29.5 N 3 5 1010.9 - 0.2 - - - - - - -
29/05:00pm 30.2 NNE 2 5 1010.7 - 0.2 - - - - - - -
29/04:30pm 30.5 NNE 2 4 1010.6 - 0.2 - - - - - - -
29/04:00pm 31.1 NE 3 5 1010.5 - 0.2 - - - - - - -
29/03:30pm 30.9 ENE 2 3 1010.6 - 0.2 - - - - - - -
29/03:00pm 30.0 NE 3 4 1011.0 - 0.2 - - - - - - -
29/02:30pm 30.3 NE 3 6 1011.4 - 0.2 - - - - - - -
29/02:00pm 30.3 NE 3 7 1011.7 - 0.2 - - - - - - -
29/01:30pm 29.0 NE 5 12 1012.4 - 0.2 - - - - - - -
29/01:00pm 29.8 NE 4 7 1012.9 - 0.2 - - - - - - -
29/12:30pm 27.1 NE 5 10 1013.4 - 0.2 - - - - - - -
29/12:00pm 29.5 NE 5 9 1013.6 - 0.0 - - - - - - -
29/11:30am 29.2 NE 6 11 1014.0 - 0.0 - - - - - - -
29/11:00am 28.2 NE 4 6 1014.2 - 0.0 - - - - - - -
29/10:30am 27.4 ENE 3 6 1014.4 - 0.0 - - - - - - -
29/10:00am 27.4 ENE 5 7 1014.3 - 0.0 - - - - - - -
29/09:30am 25.9 ENE 3 5 1014.1 - 0.0 - - - - - - -

Other Formats:

Comma delimited format used in spreadsheet applications
http://www.bom.gov.au/fwo/IDD60701/IDD60701.99501.axf

JavaScript Object Notation format (JSON) in row-major order
http://www.bom.gov.au/fwo/IDD60701/IDD60701.99501.json